Veteran, WY

2:18 AM MDT on September 03, 2014 (GMT -0600)
Cherry Creek | Change Station
CLOSE
Current Station
Personal Weather Station
Location: Veteran, WY
Elevation: 4249 ft
Nearby Weather Stations
Active Advisory: Fire Weather Warning

Elev 4249 ft 41.99 °N, 104.40 °W | Updated 7 minutes ago

Clear
Clear
54.2 °F
Feels Like 54.2 °F
N
1.0
Wind Variable Wind from SE
Gusts 1.0 mph

Today
High -- | Low -- °F
--% Chance of Precip.
Yesterday
High -- | Low -- °F
Precip. -- in
6:25 AM 7:27 PM
First Quarter, 60% visible
Pressure 29.67 in
Visibility 10.0 miles
Clouds Clear
Dew Point 46 °F
Humidity 73%
Rainfall 0.00 in
Snow Depth Not available.
UV 0 out of 12
Pollen 8.80 out of 12
Air Quality Not available.
Flu Activity Not available.
METAR KTOR 030753Z AUTO 12006KT 10SM CLR 13/08 A2981 RMK AO2 SLP045 T01330078

More Conditions Fewer Conditions

Pressure 29.67 in
Visibility 10.0 miles
Clouds Clear
Dew Point 46 °F
Humidity 73%
Rainfall 0.00 in
Snow Depth Not available.
UV 0 out of 12
Pollen 8.80 out of 12
Air Quality Not available.
Flu Activity Not available.
METAR KTOR 030753Z AUTO 12006KT 10SM CLR 13/08 A2981 RMK AO2 SLP045 T01330078

More Conditions Fewer Conditions

10-Day Weather Forecast

Almanac

Astronomy

Sep. 03, 2014 Rise Set
Actual Time 6:25 AM MDT 7:27 PM MDT
Civil Twilight 5:56 AM MDT 7:56 PM MDT
Nautical Twilight 5:22 AM MDT 8:30 PM MDT
Astronomical Twilight 4:46 AM MDT 9:05 PM MDT
Moon 3:15 PM MDT 12:18 AM MDT
Length of Visible Light 13h 59m
Length of Day
13h 02m
Tomorrow will be 2m 43s shorter.
First Quarter, 60% of the Moon is Illuminated
Today
First Quarter
Sep 8
Full
Sep 15
Last Quarter
Sep 24
New
Oct 1
First Quarter

Today's Extremes

State Highs State Lows

Community

WunderPhotos

Upload Photos

1,749,902 photos uploaded!

Nearby

Snow Depth

Station Depth Elevation
Crow Creek 10 in 8330 ft
Reno Hill 0 in 8500 ft
Sand Lake 0 in 10050 ft
Whiskey Park 0 in 8950 ft
Brooklyn Lake 0 in 10220 ft

Earthquake Activity

City Distance Mag. Time & Date
No recent earthquake activity has been reported nearby.
Minimum magnitude displayed is 2.5.

Coastal Water Temperatures

Place Temperature
No Stations Reporting

Nearby Weather Stations